createdAt,value
2023-03-12T00:00:18.743Z,-1.43
2023-03-12T00:01:24.024Z,-1.25
2023-03-12T00:02:26.625Z,-1.10
2023-03-12T00:03:29.038Z,-1.05
2023-03-12T00:04:32.606Z,-0.98
2023-03-12T00:05:38.130Z,-0.91
2023-03-12T00:06:40.425Z,-0.87
2023-03-12T00:07:42.665Z,-0.82
2023-03-12T00:08:45.277Z,-0.84
2023-03-12T00:09:47.535Z,-0.81
2023-03-12T00:10:49.789Z,-0.72
2023-03-12T00:11:52.040Z,-0.71
2023-03-12T00:12:54.718Z,-0.72
2023-03-12T00:13:58.702Z,-0.77
2023-03-12T00:15:03.007Z,-0.82
2023-03-12T00:16:14.253Z,-0.83
2023-03-12T00:17:21.952Z,-0.95
2023-03-12T00:18:24.131Z,-0.94
2023-03-12T00:19:26.737Z,-1.06
2023-03-12T00:20:29.813Z,-1.10
2023-03-12T00:21:32.454Z,-1.26
2023-03-12T00:22:34.813Z,-1.32
2023-03-12T00:23:37.509Z,-1.42
2023-03-12T00:24:39.979Z,-1.30
2023-03-12T00:25:46.631Z,-1.04
2023-03-12T00:26:49.309Z,-0.83
2023-03-12T00:27:51.676Z,-0.89
2023-03-12T00:29:01.030Z,-0.87
2023-03-12T00:30:05.116Z,-0.81
2023-03-12T00:31:18.242Z,-1.07
2023-03-12T00:32:23.970Z,-1.05
2023-03-12T00:33:27.442Z,-0.89
2023-03-12T00:34:30.141Z,-0.91
2023-03-12T00:35:40.448Z,-1.09
2023-03-12T00:36:43.232Z,-1.16
2023-03-12T00:37:45.825Z,-1.11
2023-03-12T00:38:48.414Z,-0.75
2023-03-12T00:39:51.198Z,-0.98
2023-03-12T00:40:54.036Z,-0.74
2023-03-12T00:42:00.284Z,-0.85
2023-03-12T00:43:02.809Z,-0.56
2023-03-12T00:44:08.997Z,-0.46
2023-03-12T00:45:11.522Z,-0.74
2023-03-12T00:46:13.923Z,-0.86
2023-03-12T00:47:16.234Z,-1.09
2023-03-12T00:48:18.440Z,-1.20
2023-03-12T00:49:20.659Z,-1.05
2023-03-12T00:50:23.058Z,-0.79
2023-03-12T00:51:25.510Z,-0.93
2023-03-12T00:52:27.865Z,-1.19
2023-03-12T00:53:30.213Z,-1.35
2023-03-12T00:54:32.559Z,-1.39
2023-03-12T00:55:35.091Z,-1.22
2023-03-12T00:56:37.353Z,-1.17
2023-03-12T00:57:39.595Z,-1.09
2023-03-12T00:58:42.749Z,-1.29
2023-03-12T00:59:45.093Z,-1.06
2023-03-12T01:00:47.560Z,-0.98
2023-03-12T01:01:51.077Z,-1.14
2023-03-12T01:02:53.336Z,-1.32
2023-03-12T01:03:55.985Z,-1.29
2023-03-12T01:04:58.336Z,-1.41
2023-03-12T01:06:00.883Z,-1.34
2023-03-12T01:07:03.203Z,-1.38
2023-03-12T01:08:05.641Z,-1.10
2023-03-12T01:09:09.045Z,-1.00
2023-03-12T01:10:14.837Z,-0.98
2023-03-12T01:11:19.952Z,-0.94
2023-03-12T01:12:22.384Z,-0.96
2023-03-12T01:13:25.127Z,-0.93
2023-03-12T01:14:27.393Z,-0.64
2023-03-12T01:15:30.007Z,-0.37
2023-03-12T01:16:32.861Z,-0.41
2023-03-12T01:17:35.221Z,-0.43
2023-03-12T01:18:37.663Z,-0.53
2023-03-12T01:19:39.961Z,-0.55
2023-03-12T01:20:42.328Z,-0.68
2023-03-12T01:21:44.759Z,-0.45
2023-03-12T01:22:47.326Z,-0.40
2023-03-12T01:23:50.580Z,-0.28
2023-03-12T01:24:53.033Z,-0.45
2023-03-12T01:25:55.662Z,-0.47
2023-03-12T01:26:58.436Z,-0.47
2023-03-12T01:28:00.981Z,-0.23
2023-03-12T01:29:03.293Z,-0.50
2023-03-12T01:30:06.147Z,-0.73
2023-03-12T01:31:10.299Z,-0.66
2023-03-12T01:32:12.706Z,-0.49
2023-03-12T01:33:16.692Z,-0.40
2023-03-12T01:34:19.169Z,-0.53
2023-03-12T01:35:21.811Z,-0.49
2023-03-12T01:36:27.014Z,-0.37
2023-03-12T01:37:29.523Z,-0.45
2023-03-12T01:38:31.818Z,-0.37
2023-03-12T01:39:34.043Z,-0.45
2023-03-12T01:40:36.623Z,-0.46
2023-03-12T01:41:39.168Z,-0.47
2023-03-12T01:42:41.462Z,-0.41
2023-03-12T01:43:43.783Z,-0.41
2023-03-12T01:44:51.735Z,-0.45
2023-03-12T01:46:24.460Z,-0.45
2023-03-12T01:47:31.935Z,-0.44
2023-03-12T01:48:40.035Z,-0.51
2023-03-12T01:49:42.677Z,-0.56
2023-03-12T01:50:45.579Z,-0.56
2023-03-12T01:52:04.584Z,-0.52
2023-03-12T01:53:13.647Z,-0.49
2023-03-12T01:54:30.810Z,-0.51
2023-03-12T01:55:33.131Z,-0.47
2023-03-12T01:56:37.780Z,-0.47
2023-03-12T01:57:48.555Z,-0.50
2023-03-12T01:58:54.734Z,-0.67
2023-03-12T02:00:01.884Z,-0.68
2023-03-12T02:01:04.615Z,-0.70
2023-03-12T02:02:08.127Z,-0.88
2023-03-12T02:03:11.170Z,-0.96
2023-03-12T02:04:17.778Z,-1.01
2023-03-12T02:05:43.716Z,-1.11
2023-03-12T02:06:57.684Z,-1.02
2023-03-12T02:08:00.482Z,-1.05
2023-03-12T02:09:05.921Z,-0.78
2023-03-12T02:10:09.122Z,-0.93
2023-03-12T02:11:11.498Z,-1.00
2023-03-12T02:12:14.924Z,-1.04
2023-03-12T02:13:17.475Z,-0.84
2023-03-12T02:14:22.104Z,-0.84
2023-03-12T02:15:24.428Z,-0.87
2023-03-12T02:16:27.024Z,-0.85
2023-03-12T02:17:30.372Z,-0.82
2023-03-12T02:18:34.643Z,-0.79
2023-03-12T02:19:52.321Z,-0.98
2023-03-12T02:21:16.233Z,-0.95
2023-03-12T02:22:21.030Z,-0.95
2023-03-12T02:23:35.216Z,-1.01
2023-03-12T02:25:03.624Z,-1.04
2023-03-12T02:26:07.162Z,-0.91
2023-03-12T02:27:12.131Z,-0.79
2023-03-12T02:28:16.780Z,-0.80
2023-03-12T02:29:19.125Z,-0.78
2023-03-12T02:30:22.344Z,-0.72
2023-03-12T02:31:29.172Z,-0.77
2023-03-12T02:32:38.305Z,-0.98
2023-03-12T02:33:41.315Z,-1.00
2023-03-12T02:34:43.710Z,-1.00
2023-03-12T02:35:47.718Z,-1.00
2023-03-12T02:36:50.562Z,-1.03
2023-03-12T02:37:55.811Z,-1.07
2023-03-12T02:38:58.065Z,-1.12
2023-03-12T02:40:10.759Z,-1.05
2023-03-12T02:41:31.316Z,-1.14
2023-03-12T02:42:33.970Z,-1.22
2023-03-12T02:43:36.696Z,-1.26
2023-03-12T02:44:39.366Z,-1.31
2023-03-12T02:45:41.755Z,-1.32
2023-03-12T02:46:47.215Z,-1.35
2023-03-12T02:47:49.754Z,-1.35
2023-03-12T02:48:54.223Z,-1.35
2023-03-12T02:49:56.530Z,-1.36
2023-03-12T02:50:58.875Z,-1.38
2023-03-12T02:52:02.505Z,-1.35
2023-03-12T02:53:05.035Z,-1.34
2023-03-12T02:54:08.093Z,-1.34
2023-03-12T02:55:10.942Z,-1.24
2023-03-12T02:56:13.190Z,-1.23
2023-03-12T02:57:15.687Z,-1.23
2023-03-12T02:58:18.085Z,-1.17
2023-03-12T02:59:21.851Z,-1.11
2023-03-12T03:02:13.026Z,-1.32
2023-03-12T03:03:15.746Z,-1.20
2023-03-12T03:04:17.942Z,-1.08
2023-03-12T03:05:21.391Z,-0.92
2023-03-12T03:06:24.172Z,-0.81
2023-03-12T03:07:26.533Z,-0.72
2023-03-12T03:08:29.731Z,-0.65
2023-03-12T03:09:31.935Z,-0.55
2023-03-12T03:10:34.285Z,-0.43
2023-03-12T03:11:36.723Z,-0.46
2023-03-12T03:12:40.895Z,-0.43
2023-03-12T03:13:44.767Z,-0.50
2023-03-12T03:14:47.673Z,-0.52
2023-03-12T03:15:49.927Z,-0.50
2023-03-12T03:16:52.865Z,-0.48
2023-03-12T03:17:59.260Z,-0.37
2023-03-12T03:19:02.236Z,-0.37
2023-03-12T03:20:11.973Z,-0.54
2023-03-12T03:21:16.632Z,-0.62
2023-03-12T03:22:21.317Z,-0.73
2023-03-12T03:23:24.027Z,-0.69
2023-03-12T03:24:26.398Z,-0.65
2023-03-12T03:25:28.919Z,-0.74
2023-03-12T03:26:31.288Z,-0.69
2023-03-12T03:27:33.547Z,-0.69
2023-03-12T03:28:35.888Z,-0.81
2023-03-12T03:29:38.368Z,-0.79
2023-03-12T03:30:40.816Z,-0.78
2023-03-12T03:31:43.646Z,-0.78
2023-03-12T03:32:47.580Z,-0.80
2023-03-12T03:33:51.195Z,-0.72
2023-03-12T03:34:53.444Z,-0.65
2023-03-12T03:35:57.191Z,-0.68
2023-03-12T03:36:59.772Z,-0.79
2023-03-12T03:38:02.565Z,-0.80
2023-03-12T03:39:05.257Z,-0.72
2023-03-12T03:40:11.857Z,-0.58
2023-03-12T03:41:18.880Z,-0.36
2023-03-12T03:42:21.683Z,-0.16
2023-03-12T03:43:24.949Z,0.01
2023-03-12T03:44:27.369Z,0.15
2023-03-12T03:45:30.062Z,0.19
2023-03-12T03:46:32.307Z,0.21
2023-03-12T03:47:38.330Z,0.16
2023-03-12T03:48:41.461Z,0.20
2023-03-12T03:49:45.482Z,0.21
2023-03-12T03:50:47.905Z,0.08
2023-03-12T03:51:51.837Z,0.01
2023-03-12T03:53:02.189Z,-0.02
2023-03-12T03:54:04.519Z,-0.02
2023-03-12T03:55:07.104Z,-0.00
2023-03-12T03:56:15.809Z,-0.07
2023-03-12T03:57:24.141Z,-0.02
2023-03-12T03:58:26.314Z,-0.03
2023-03-12T03:59:28.785Z,-0.02
2023-03-12T04:00:31.390Z,0.01
2023-03-12T04:01:33.677Z,-0.07
2023-03-12T04:02:37.072Z,-0.01
2023-03-12T04:03:39.313Z,-0.04
2023-03-12T04:04:41.811Z,-0.12
2023-03-12T04:05:45.277Z,-0.17
2023-03-12T04:06:48.437Z,-0.10
2023-03-12T04:07:53.536Z,-0.10
2023-03-12T04:08:59.133Z,-0.09
2023-03-12T04:10:04.633Z,0.09
2023-03-12T04:11:12.945Z,0.05
2023-03-12T04:12:15.326Z,0.16
2023-03-12T04:13:18.052Z,0.27
2023-03-12T04:14:20.308Z,0.21
2023-03-12T04:15:22.562Z,0.23
2023-03-12T04:16:25.515Z,0.25
2023-03-12T04:17:29.347Z,0.35
2023-03-12T04:18:32.501Z,0.25
2023-03-12T04:19:37.158Z,0.34
2023-03-12T04:20:40.968Z,0.34
2023-03-12T04:21:43.776Z,0.32
2023-03-12T04:22:47.472Z,0.18
2023-03-12T04:23:49.757Z,0.11
2023-03-12T04:24:52.858Z,0.24
2023-03-12T04:25:55.645Z,0.31
2023-03-12T04:26:59.072Z,0.48
2023-03-12T04:28:01.986Z,0.57
2023-03-12T04:29:04.307Z,0.40
2023-03-12T04:30:07.303Z,0.37
2023-03-12T04:31:11.551Z,0.41
2023-03-12T04:32:34.084Z,0.46
2023-03-12T04:33:38.657Z,0.44
2023-03-12T04:34:41.420Z,0.56
2023-03-12T04:35:51.598Z,0.51
2023-03-12T04:36:54.038Z,0.66
2023-03-12T04:37:57.487Z,0.64
2023-03-12T04:39:01.556Z,0.50
2023-03-12T04:40:09.759Z,0.48
2023-03-12T04:41:14.505Z,0.52
2023-03-12T04:42:23.255Z,0.52
2023-03-12T04:43:25.948Z,0.59
2023-03-12T04:44:28.196Z,0.60
2023-03-12T04:45:30.508Z,0.49
2023-03-12T04:46:32.885Z,0.50
2023-03-12T04:47:35.243Z,0.45
2023-03-12T04:48:37.777Z,0.31
2023-03-12T04:49:40.249Z,0.38
2023-03-12T04:50:43.510Z,0.47
2023-03-12T04:51:46.010Z,0.44
2023-03-12T04:52:48.302Z,0.33
2023-03-12T04:53:51.465Z,0.33
2023-03-12T04:54:54.350Z,0.43
2023-03-12T04:55:56.985Z,0.49
2023-03-12T04:56:59.704Z,0.25
2023-03-12T04:58:02.405Z,0.22
2023-03-12T04:59:05.824Z,0.42
2023-03-12T05:00:14.867Z,0.60
2023-03-12T05:01:33.388Z,0.47
2023-03-12T05:02:39.429Z,0.48
2023-03-12T05:03:41.924Z,0.61
2023-03-12T05:04:44.441Z,0.59
2023-03-12T05:05:46.890Z,0.65
2023-03-12T05:06:49.454Z,0.43
2023-03-12T05:07:51.794Z,0.36
2023-03-12T05:08:54.196Z,0.33
2023-03-12T05:09:57.061Z,0.40
2023-03-12T05:10:59.279Z,0.55
2023-03-12T05:12:02.125Z,0.44
2023-03-12T05:13:04.660Z,0.47
2023-03-12T05:14:06.997Z,0.53
2023-03-12T05:15:09.589Z,0.48
2023-03-12T05:16:13.304Z,0.34
2023-03-12T05:17:16.364Z,0.36
2023-03-12T05:18:20.463Z,0.52
2023-03-12T05:19:23.083Z,0.58
2023-03-12T05:20:25.404Z,0.64
2023-03-12T05:21:27.870Z,0.75
2023-03-12T05:22:32.139Z,0.77
2023-03-12T05:23:35.956Z,0.69
2023-03-12T05:24:38.447Z,0.78
2023-03-12T05:25:41.100Z,0.60
2023-03-12T05:26:43.674Z,0.58
2023-03-12T05:27:50.366Z,0.69
2023-03-12T05:28:52.822Z,0.78
2023-03-12T05:29:56.705Z,0.74
2023-03-12T05:31:00.416Z,0.59
2023-03-12T05:32:03.391Z,0.39
2023-03-12T05:33:05.687Z,0.33
2023-03-12T05:34:07.943Z,0.24
2023-03-12T05:35:14.337Z,0.29
2023-03-12T05:36:18.349Z,0.40
2023-03-12T05:37:21.841Z,0.56
2023-03-12T05:38:25.555Z,0.65
2023-03-12T05:39:28.628Z,0.45
2023-03-12T05:40:34.848Z,0.40
2023-03-12T05:41:37.115Z,0.48
2023-03-12T05:42:48.437Z,0.55
2023-03-12T05:43:52.758Z,0.40
2023-03-12T05:44:57.391Z,0.24
2023-03-12T05:46:04.210Z,0.20
2023-03-12T05:47:09.162Z,0.21
2023-03-12T05:48:11.644Z,0.45
2023-03-12T05:49:14.096Z,0.65
2023-03-12T05:50:19.313Z,0.83
2023-03-12T05:51:22.167Z,0.72
2023-03-12T05:52:24.656Z,0.76
2023-03-12T05:53:29.342Z,0.66
2023-03-12T05:54:31.663Z,0.55
2023-03-12T05:55:38.414Z,0.49
2023-03-12T05:56:43.812Z,0.43
2023-03-12T05:57:46.131Z,0.49
2023-03-12T05:58:51.282Z,0.66
2023-03-12T05:59:54.601Z,0.76
2023-03-12T06:00:57.079Z,0.87
2023-03-12T06:01:59.615Z,0.77
2023-03-12T06:03:02.810Z,0.84
2023-03-12T06:04:05.685Z,0.84
2023-03-12T06:05:13.048Z,0.86
2023-03-12T06:06:16.262Z,1.00
2023-03-12T06:07:18.725Z,1.15
2023-03-12T06:08:22.202Z,1.11
2023-03-12T06:09:24.864Z,1.00
2023-03-12T06:10:29.131Z,0.87
2023-03-12T06:11:33.799Z,0.90
2023-03-12T06:12:38.294Z,0.81
2023-03-12T06:13:43.564Z,0.75
2023-03-12T06:14:46.213Z,0.69
2023-03-12T06:15:49.402Z,0.77
2023-03-12T06:16:54.563Z,0.91
2023-03-12T06:17:56.832Z,0.94
2023-03-12T06:19:02.166Z,0.95
2023-03-12T06:20:05.137Z,1.01
2023-03-12T06:21:16.130Z,1.02
2023-03-12T06:22:20.154Z,0.99
2023-03-12T06:23:23.996Z,0.97
2023-03-12T06:24:26.283Z,1.07
2023-03-12T06:25:44.948Z,1.19
2023-03-12T06:26:47.358Z,1.32
2023-03-12T06:27:49.648Z,1.27
2023-03-12T06:28:52.324Z,1.10
2023-03-12T06:29:54.718Z,0.93
2023-03-12T06:30:56.946Z,0.79
2023-03-12T06:31:59.205Z,0.80
2023-03-12T06:33:04.080Z,0.85
2023-03-12T06:34:06.611Z,1.00
2023-03-12T06:35:09.578Z,1.15
2023-03-12T06:36:12.434Z,1.15
2023-03-12T06:37:15.058Z,1.22
2023-03-12T06:38:17.592Z,1.29
2023-03-12T06:39:19.856Z,1.16
2023-03-12T06:40:22.129Z,1.13
2023-03-12T06:41:24.341Z,0.98
2023-03-12T06:42:26.567Z,0.98
2023-03-12T06:43:32.750Z,0.89
2023-03-12T06:44:35.026Z,0.92
2023-03-12T06:45:37.482Z,0.97
2023-03-12T06:46:42.738Z,1.13
2023-03-12T06:47:45.211Z,1.27
2023-03-12T06:48:47.957Z,1.34
2023-03-12T06:49:50.249Z,1.43
2023-03-12T06:50:52.700Z,1.46
2023-03-12T06:51:57.066Z,1.53
2023-03-12T06:52:59.469Z,1.40
2023-03-12T06:54:02.606Z,1.42
2023-03-12T06:55:06.975Z,1.35
2023-03-12T06:56:09.877Z,1.38
2023-03-12T06:57:12.211Z,1.37
2023-03-12T06:58:14.559Z,1.39
2023-03-12T06:59:20.711Z,1.59
2023-03-12T07:00:22.990Z,1.48
2023-03-12T07:01:25.365Z,1.62
2023-03-12T07:02:28.053Z,1.87
2023-03-12T07:03:30.373Z,1.84
2023-03-12T07:04:32.614Z,1.61
2023-03-12T07:05:34.897Z,1.63
2023-03-12T07:06:37.149Z,1.58
2023-03-12T07:07:39.478Z,1.72
2023-03-12T07:08:42.978Z,1.55
2023-03-12T07:09:45.347Z,1.69
2023-03-12T07:10:47.636Z,1.71
2023-03-12T07:11:50.071Z,1.69
2023-03-12T07:12:52.574Z,1.75
2023-03-12T07:13:54.908Z,1.66
2023-03-12T07:14:57.262Z,1.80
2023-03-12T07:15:59.561Z,1.80
2023-03-12T07:17:02.267Z,1.84
2023-03-12T07:18:10.769Z,1.83
2023-03-12T07:19:13.097Z,1.74
2023-03-12T07:20:15.291Z,1.82
2023-03-12T07:21:22.809Z,1.87
2023-03-12T07:22:25.166Z,1.82
2023-03-12T07:23:28.178Z,1.83
2023-03-12T07:24:30.600Z,1.86
2023-03-12T07:25:37.214Z,2.04
2023-03-12T07:26:39.973Z,2.05
2023-03-12T07:27:42.283Z,2.14
2023-03-12T07:28:45.107Z,2.16
2023-03-12T07:29:47.577Z,2.02
2023-03-12T07:30:50.706Z,2.13
2023-03-12T07:31:53.123Z,2.26
2023-03-12T07:32:55.492Z,2.26
2023-03-12T07:33:58.048Z,2.10
2023-03-12T07:35:00.593Z,2.07
2023-03-12T07:36:03.364Z,2.13
2023-03-12T07:37:05.670Z,2.12
2023-03-12T07:38:09.331Z,2.25
2023-03-12T07:39:11.563Z,2.36
2023-03-12T07:40:14.250Z,2.48
2023-03-12T07:41:16.970Z,2.37
2023-03-12T07:42:19.359Z,2.22
2023-03-12T07:43:23.803Z,2.20
2023-03-12T07:44:29.325Z,2.14
2023-03-12T07:45:31.784Z,2.43
2023-03-12T07:46:33.994Z,2.65
2023-03-12T07:47:36.360Z,2.95
2023-03-12T07:48:41.518Z,3.00
2023-03-12T07:49:48.181Z,3.16
2023-03-12T07:50:50.987Z,3.21
2023-03-12T07:51:53.653Z,2.95
2023-03-12T07:52:55.884Z,2.66
2023-03-12T07:53:58.132Z,2.52
2023-03-12T07:55:00.504Z,2.47
2023-03-12T07:56:03.152Z,2.39
2023-03-12T07:57:06.058Z,2.59
2023-03-12T07:58:09.110Z,2.56
2023-03-12T07:59:11.608Z,2.41
2023-03-12T08:00:15.334Z,2.35
2023-03-12T08:01:25.504Z,2.48
2023-03-12T08:02:30.335Z,2.55
2023-03-12T08:03:33.360Z,2.53
2023-03-12T08:04:35.951Z,2.53
2023-03-12T08:05:38.604Z,2.53
2023-03-12T08:06:42.901Z,2.56
2023-03-12T08:07:45.656Z,2.43
2023-03-12T08:08:48.093Z,2.44
2023-03-12T08:09:50.443Z,2.57
2023-03-12T08:10:55.022Z,2.70
2023-03-12T08:11:57.280Z,2.66
2023-03-12T08:12:59.591Z,2.61
2023-03-12T08:14:05.486Z,2.74
2023-03-12T08:15:12.805Z,2.92
2023-03-12T08:16:15.662Z,2.90
2023-03-12T08:17:18.289Z,2.85
2023-03-12T08:18:21.053Z,2.78
2023-03-12T08:19:23.281Z,2.85
2023-03-12T08:20:25.562Z,2.77
2023-03-12T08:21:27.882Z,2.49
2023-03-12T08:22:30.072Z,2.55
2023-03-12T08:23:32.379Z,2.68
2023-03-12T08:24:35.804Z,2.71
2023-03-12T08:25:38.142Z,2.60
2023-03-12T08:26:40.467Z,2.57
2023-03-12T08:27:43.100Z,2.66
2023-03-12T08:28:45.883Z,2.69
2023-03-12T08:29:48.267Z,2.59
2023-03-12T08:30:55.633Z,2.64
2023-03-12T08:32:04.966Z,2.80
2023-03-12T08:33:07.962Z,2.80
2023-03-12T08:34:10.245Z,2.86
2023-03-12T08:35:12.603Z,2.94
2023-03-12T08:36:15.103Z,2.90
2023-03-12T08:37:17.885Z,2.77
2023-03-12T08:38:20.385Z,2.98
2023-03-12T08:39:22.711Z,3.08
2023-03-12T08:40:25.092Z,3.02
2023-03-12T08:41:27.366Z,2.95
2023-03-12T08:42:29.709Z,3.04
2023-03-12T08:43:32.055Z,3.06
2023-03-12T08:44:34.835Z,3.21
2023-03-12T08:45:37.397Z,3.21
2023-03-12T08:46:40.026Z,3.10
2023-03-12T08:47:43.521Z,3.11
2023-03-12T08:48:45.812Z,2.99
2023-03-12T08:49:48.273Z,3.07
2023-03-12T08:50:50.916Z,3.13
2023-03-12T08:51:53.316Z,3.03
2023-03-12T08:52:56.129Z,2.83
2023-03-12T08:54:01.041Z,2.90
2023-03-12T08:55:03.904Z,2.94
2023-03-12T08:56:06.368Z,2.85
2023-03-12T08:57:08.648Z,2.67
2023-03-12T08:58:11.057Z,2.66
2023-03-12T08:59:14.147Z,2.90
2023-03-12T09:00:17.905Z,2.98
2023-03-12T09:01:20.354Z,2.94
2023-03-12T09:02:22.617Z,2.79
2023-03-12T09:03:25.832Z,2.87
2023-03-12T09:04:31.233Z,2.85
2023-03-12T09:05:33.528Z,2.77
2023-03-12T09:06:36.198Z,2.76
2023-03-12T09:07:38.643Z,2.81
2023-03-12T09:08:41.297Z,2.89
2023-03-12T09:09:43.842Z,2.73
2023-03-12T09:10:50.181Z,2.79
2023-03-12T09:11:52.575Z,2.70
2023-03-12T09:12:54.994Z,2.76
2023-03-12T09:14:28.358Z,2.78
2023-03-12T09:15:19.684Z,2.97
2023-03-12T09:16:21.957Z,3.01
2023-03-12T09:17:24.332Z,3.16
2023-03-12T09:18:27.033Z,3.10
2023-03-12T09:19:29.790Z,3.22
2023-03-12T09:20:32.244Z,3.24
2023-03-12T09:21:34.659Z,3.20
2023-03-12T09:22:37.331Z,3.15
2023-03-12T09:23:41.074Z,3.09
2023-03-12T09:24:43.336Z,3.09
2023-03-12T09:25:46.677Z,3.05
2023-03-12T09:26:49.222Z,3.01
2023-03-12T09:27:51.670Z,3.21
2023-03-12T09:28:54.070Z,3.31
2023-03-12T09:30:00.598Z,3.24
2023-03-12T09:31:06.615Z,3.18
2023-03-12T09:32:09.545Z,3.22
2023-03-12T09:33:12.149Z,3.36
2023-03-12T09:34:14.572Z,3.44
2023-03-12T09:35:17.036Z,3.49
2023-03-12T09:36:19.333Z,3.30
2023-03-12T09:37:23.950Z,3.28
2023-03-12T09:38:27.002Z,3.27
2023-03-12T09:39:29.473Z,3.39
2023-03-12T09:40:36.360Z,3.35
2023-03-12T09:41:41.183Z,3.15
2023-03-12T09:42:55.926Z,3.19
2023-03-12T09:43:58.173Z,3.27
2023-03-12T09:45:04.490Z,3.35
2023-03-12T09:46:17.880Z,3.52
2023-03-12T09:47:33.539Z,3.54
2023-03-12T09:48:37.201Z,3.64
2023-03-12T09:49:45.318Z,3.78
2023-03-12T09:50:50.524Z,3.86
2023-03-12T09:51:56.956Z,3.96
2023-03-12T09:53:06.873Z,4.21
2023-03-12T09:54:42.811Z,4.32
2023-03-12T09:55:49.215Z,4.45
2023-03-12T09:56:52.630Z,4.23
2023-03-12T09:57:59.585Z,4.36
2023-03-12T09:59:01.967Z,4.21
2023-03-12T10:00:07.191Z,4.41
2023-03-12T10:01:38.901Z,4.51
2023-03-12T10:03:00.841Z,4.47
2023-03-12T10:04:29.688Z,4.23
2023-03-12T10:06:08.623Z,4.19
2023-03-12T10:07:27.526Z,4.25
2023-03-12T10:08:56.781Z,4.26
2023-03-12T10:10:27.825Z,4.12
2023-03-12T10:11:48.570Z,4.10
2023-03-12T10:13:15.106Z,4.32
2023-03-12T10:14:26.205Z,4.31
2023-03-12T10:15:54.845Z,4.32
2023-03-12T10:17:18.452Z,4.22
2023-03-12T10:19:07.155Z,4.13
2023-03-12T10:21:09.802Z,4.14
2023-03-12T10:22:35.182Z,4.28
2023-03-12T10:24:04.491Z,4.51
2023-03-12T10:25:32.045Z,4.71
2023-03-12T10:26:40.182Z,5.21
2023-03-12T10:27:43.301Z,5.37
2023-03-12T10:28:53.452Z,5.18
2023-03-12T10:29:57.589Z,5.24
2023-03-12T10:31:36.300Z,4.91
2023-03-12T11:11:48.235Z,8.52
2023-03-12T11:12:55.432Z,8.49
2023-03-12T11:14:19.993Z,8.67
2023-03-12T11:15:36.112Z,8.78
2023-03-12T11:16:38.447Z,8.97
2023-03-12T11:17:40.675Z,9.35
2023-03-12T11:19:25.822Z,9.33
2023-03-12T11:20:29.801Z,9.87
2023-03-12T11:21:40.351Z,9.99
2023-03-12T11:22:42.591Z,10.10
2023-03-12T11:24:07.223Z,10.31
2023-03-12T11:27:21.117Z,11.29
2023-03-12T11:28:29.725Z,10.94
2023-03-12T11:29:39.674Z,11.59
2023-03-12T11:30:43.807Z,11.63
2023-03-12T11:31:58.516Z,11.37
2023-03-12T11:33:02.127Z,11.50
2023-03-12T11:34:15.881Z,11.26
2023-03-12T11:35:27.197Z,11.48
2023-03-12T11:36:44.547Z,11.36
2023-03-12T11:38:00.172Z,11.16
2023-03-12T11:39:22.778Z,11.05
2023-03-12T11:40:49.632Z,11.41
2023-03-12T11:42:32.555Z,11.15
2023-03-12T11:44:15.820Z,11.14
2023-03-12T11:45:36.766Z,11.22
2023-03-12T11:47:00.408Z,11.58
2023-03-12T11:48:32.707Z,11.56
2023-03-12T11:49:51.209Z,11.76
2023-03-12T11:51:13.852Z,11.63
2023-03-12T11:52:31.393Z,11.78
2023-03-12T11:53:42.243Z,11.60
2023-03-12T11:55:32.228Z,11.69
2023-03-12T11:56:58.935Z,12.05
2023-03-12T11:58:14.467Z,11.96
2023-03-12T11:59:50.642Z,11.98
2023-03-12T12:00:53.034Z,11.87
2023-03-12T12:02:00.848Z,11.56
2023-03-12T12:03:18.414Z,11.43
2023-03-12T12:04:52.568Z,11.49
2023-03-12T12:06:13.376Z,11.46
2023-03-12T12:07:41.005Z,11.45
2023-03-12T12:09:04.676Z,11.76
2023-03-12T12:10:30.653Z,11.70
2023-03-12T12:11:38.767Z,11.70
2023-03-12T12:12:50.016Z,11.77
2023-03-12T12:14:13.400Z,11.72
2023-03-12T12:15:31.407Z,11.84
2023-03-12T12:16:47.495Z,11.43
2023-03-12T12:17:59.432Z,10.99
2023-03-12T12:19:30.151Z,10.93
2023-03-12T12:20:51.582Z,10.78
2023-03-12T12:22:08.487Z,10.94
2023-03-12T12:23:28.290Z,10.94
2023-03-12T12:25:11.285Z,10.89
2023-03-12T12:26:21.610Z,10.37
2023-03-12T12:27:30.190Z,10.63
2023-03-12T12:28:39.779Z,10.51
2023-03-12T12:30:10.238Z,10.46
2023-03-12T12:31:27.156Z,10.78
2023-03-12T12:32:42.952Z,10.79
2023-03-12T12:33:50.678Z,10.86
2023-03-12T12:35:08.231Z,10.82
2023-03-12T12:36:10.956Z,10.84
2023-03-12T12:37:39.230Z,10.75
2023-03-12T12:38:43.769Z,10.93
2023-03-12T12:39:52.049Z,10.88
2023-03-12T12:41:01.351Z,11.14
2023-03-12T12:42:07.828Z,11.32
2023-03-12T12:43:36.934Z,11.71
2023-03-12T12:44:46.623Z,12.18
2023-03-12T12:45:52.571Z,11.91
2023-03-12T12:47:05.350Z,11.63
2023-03-12T12:48:17.516Z,12.00
2023-03-12T12:49:30.324Z,11.93
2023-03-12T12:50:38.292Z,11.95
2023-03-12T12:51:46.177Z,11.87
2023-03-12T12:53:20.460Z,11.76
2023-03-12T12:54:22.665Z,11.90
2023-03-12T12:55:47.947Z,11.81
2023-03-12T12:57:00.745Z,12.01
2023-03-12T12:58:15.773Z,11.82
2023-03-12T12:59:52.070Z,11.58
2023-03-12T13:00:55.931Z,11.82
2023-03-12T13:02:01.320Z,11.95
2023-03-12T13:03:04.261Z,11.80
2023-03-12T13:04:13.448Z,12.15
2023-03-12T13:05:22.762Z,12.09
2023-03-12T13:06:29.956Z,11.91
2023-03-12T13:07:34.256Z,12.38
2023-03-12T13:08:39.329Z,12.19
2023-03-12T13:09:46.184Z,12.60
2023-03-12T13:10:58.152Z,12.63
2023-03-12T13:12:47.655Z,12.23
2023-03-12T13:14:11.342Z,12.46
2023-03-12T13:15:28.708Z,13.23
2023-03-12T13:16:38.616Z,13.24
2023-03-12T13:18:03.970Z,13.40
2023-03-12T13:19:27.573Z,13.07
2023-03-12T13:21:07.024Z,13.39
2023-03-12T13:22:12.766Z,13.34
2023-03-12T13:23:34.045Z,13.32
2023-03-12T13:25:07.833Z,13.21
2023-03-12T13:26:47.496Z,12.88
2023-03-12T13:27:58.439Z,12.87
2023-03-12T13:29:32.908Z,12.55
2023-03-12T13:30:35.128Z,12.55
2023-03-12T13:31:38.628Z,12.59
2023-03-12T13:32:49.897Z,12.30
2023-03-12T13:34:00.570Z,11.96
2023-03-12T13:35:14.796Z,11.90
2023-03-12T13:36:17.209Z,11.72
2023-03-12T13:37:29.335Z,11.65
2023-03-12T13:38:37.277Z,11.87
2023-03-12T13:39:44.856Z,11.94
2023-03-12T13:41:00.880Z,12.02
2023-03-12T13:42:24.983Z,12.06
2023-03-12T13:43:38.997Z,11.82
2023-03-12T13:44:43.562Z,12.01
2023-03-12T13:46:06.735Z,12.31
2023-03-12T13:47:11.931Z,11.98
2023-03-12T13:48:18.118Z,12.30
2023-03-12T13:49:21.188Z,12.61
2023-03-12T13:50:25.052Z,12.73
2023-03-12T13:51:28.197Z,12.81
2023-03-12T13:52:32.098Z,12.64
2023-03-12T13:53:39.253Z,12.57
2023-03-12T13:55:00.160Z,12.56
2023-03-12T13:56:16.744Z,12.46
2023-03-12T13:57:40.505Z,12.74
2023-03-12T13:58:57.254Z,12.83
2023-03-12T14:00:00.134Z,12.91
2023-03-12T14:01:06.791Z,12.74
2023-03-12T14:02:21.164Z,12.68
2023-03-12T14:03:41.681Z,12.65
2023-03-12T14:04:44.363Z,12.66
2023-03-12T14:06:07.405Z,12.39
2023-03-12T14:07:09.836Z,12.38
2023-03-12T14:08:24.769Z,12.44
2023-03-12T14:09:56.859Z,12.39
2023-03-12T14:11:37.602Z,12.15
2023-03-12T14:12:51.544Z,12.00
2023-03-12T14:14:12.889Z,11.90
2023-03-12T14:15:40.048Z,11.88
2023-03-12T14:16:46.185Z,11.94
2023-03-12T14:17:57.022Z,12.28
2023-03-12T14:19:05.051Z,12.38
2023-03-12T14:20:13.885Z,12.70
2023-03-12T14:21:21.856Z,12.80
2023-03-12T14:22:25.305Z,12.68
2023-03-12T14:23:39.042Z,12.65
2023-03-12T14:24:50.280Z,12.55
2023-03-12T14:25:57.960Z,12.51
2023-03-12T14:27:03.965Z,12.34
2023-03-12T14:28:24.322Z,12.48
2023-03-12T14:29:38.919Z,12.48
2023-03-12T14:30:55.639Z,12.55
2023-03-12T14:32:03.417Z,12.51
2023-03-12T14:33:06.738Z,12.45
2023-03-12T14:34:18.680Z,12.71
2023-03-12T14:35:28.374Z,12.82
2023-03-12T14:36:46.695Z,12.74
2023-03-12T14:38:06.777Z,12.89
2023-03-12T14:39:22.497Z,13.06
2023-03-12T14:40:25.572Z,12.88
2023-03-12T14:41:54.176Z,13.02
2023-03-12T14:42:59.848Z,13.34
2023-03-12T14:44:23.855Z,13.32
2023-03-12T14:45:28.070Z,13.41
2023-03-12T14:46:30.795Z,13.28
2023-03-12T14:47:44.131Z,13.55
2023-03-12T14:48:51.823Z,13.69
2023-03-12T14:49:57.779Z,13.71
2023-03-12T14:51:01.929Z,13.52
2023-03-12T14:52:04.733Z,13.17
2023-03-12T14:53:34.220Z,13.06
2023-03-12T14:54:39.101Z,12.76
2023-03-12T14:55:41.552Z,12.51
2023-03-12T14:56:44.675Z,12.72
2023-03-12T14:57:49.024Z,12.39
2023-03-12T14:58:52.786Z,12.32
2023-03-12T14:59:59.999Z,12.43
2023-03-12T15:01:09.580Z,12.38
2023-03-12T15:02:14.991Z,12.34
2023-03-12T15:03:17.815Z,12.42
2023-03-12T15:04:23.820Z,12.35
2023-03-12T15:05:26.861Z,12.53
2023-03-12T15:06:32.784Z,12.38
2023-03-12T15:07:40.112Z,12.33
2023-03-12T15:08:44.429Z,12.42
2023-03-12T15:09:52.621Z,12.33
2023-03-12T15:10:58.438Z,12.42
2023-03-12T15:12:07.258Z,12.15
2023-03-12T15:13:12.755Z,12.26
2023-03-12T15:14:16.674Z,12.25
2023-03-12T15:15:32.161Z,12.24
2023-03-12T15:16:35.626Z,12.34
2023-03-12T15:17:38.131Z,12.35
2023-03-12T15:18:40.875Z,12.34
2023-03-12T15:19:43.522Z,12.20
2023-03-12T15:20:48.439Z,12.18
2023-03-12T15:21:51.329Z,12.12